sensor_id;sensor_type;location;lat;lon;timestamp;temperature;humidity
13744;DHT22;6943;52.368;9.966;2024-03-02T00:02:11;9.20;99.90
13744;DHT22;6943;52.368;9.966;2024-03-02T00:04:36;9.60;99.90
13744;DHT22;6943;52.368;9.966;2024-03-02T00:07:02;9.00;99.90
13744;DHT22;6943;52.368;9.966;2024-03-02T00:09:29;9.10;99.90
13744;DHT22;6943;52.368;9.966;2024-03-02T00:11:54;9.10;99.90
13744;DHT22;6943;52.368;9.966;2024-03-02T00:14:20;9.30;99.90
13744;DHT22;6943;52.368;9.966;2024-03-02T00:16:45;9.00;99.90
13744;DHT22;6943;52.368;9.966;2024-03-02T00:19:11;9.10;99.90
13744;DHT22;6943;52.368;9.966;2024-03-02T00:21:37;9.10;99.90
13744;DHT22;6943;52.368;9.966;2024-03-02T00:24:32;9.20;99.90
13744;DHT22;6943;52.368;9.966;2024-03-02T00:26:58;9.20;99.90
13744;DHT22;6943;52.368;9.966;2024-03-02T00:29:24;8.90;99.90
13744;DHT22;6943;52.368;9.966;2024-03-02T00:31:50;8.90;99.90
13744;DHT22;6943;52.368;9.966;2024-03-02T00:34:17;9.20;99.90
13744;DHT22;6943;52.368;9.966;2024-03-02T00:36:44;9.10;99.90
13744;DHT22;6943;52.368;9.966;2024-03-02T00:39:12;9.00;99.90
13744;DHT22;6943;52.368;9.966;2024-03-02T00:41:41;9.20;99.90
13744;DHT22;6943;52.368;9.966;2024-03-02T00:44:09;9.00;99.90
13744;DHT22;6943;52.368;9.966;2024-03-02T00:46:40;8.70;99.90
13744;DHT22;6943;52.368;9.966;2024-03-02T00:49:22;8.90;99.90
13744;DHT22;6943;52.368;9.966;2024-03-02T00:51:49;8.90;99.90
13744;DHT22;6943;52.368;9.966;2024-03-02T00:54:15;8.90;99.90
13744;DHT22;6943;52.368;9.966;2024-03-02T00:56:44;8.80;99.90
13744;DHT22;6943;52.368;9.966;2024-03-02T00:59:10;8.90;99.90
13744;DHT22;6943;52.368;9.966;2024-03-02T01:01:36;8.80;99.90
13744;DHT22;6943;52.368;9.966;2024-03-02T01:04:02;8.40;99.90
13744;DHT22;6943;52.368;9.966;2024-03-02T01:06:27;8.90;99.90
13744;DHT22;6943;52.368;9.966;2024-03-02T01:08:53;8.80;99.90
13744;DHT22;6943;52.368;9.966;2024-03-02T01:11:18;9.00;99.90
13744;DHT22;6943;52.368;9.966;2024-03-02T01:13:45;9.00;99.90
13744;DHT22;6943;52.368;9.966;2024-03-02T01:16:11;9.10;99.90
13744;DHT22;6943;52.368;9.966;2024-03-02T01:18:37;9.00;99.90
13744;DHT22;6943;52.368;9.966;2024-03-02T01:21:02;9.00;99.90
13744;DHT22;6943;52.368;9.966;2024-03-02T01:23:28;9.40;99.90
13744;DHT22;6943;52.368;9.966;2024-03-02T01:25:54;9.50;99.90
13744;DHT22;6943;52.368;9.966;2024-03-02T01:28:20;9.10;99.90
13744;DHT22;6943;52.368;9.966;2024-03-02T01:30:46;9.10;99.90
13744;DHT22;6943;52.368;9.966;2024-03-02T01:33:11;9.10;99.90
13744;DHT22;6943;52.368;9.966;2024-03-02T01:35:37;9.50;99.90
13744;DHT22;6943;52.368;9.966;2024-03-02T01:38:03;9.30;99.90
13744;DHT22;6943;52.368;9.966;2024-03-02T01:40:30;9.30;99.90
13744;DHT22;6943;52.368;9.966;2024-03-02T01:42:56;9.60;99.90
13744;DHT22;6943;52.368;9.966;2024-03-02T01:45:24;9.60;99.90
13744;DHT22;6943;52.368;9.966;2024-03-02T01:47:50;9.20;99.90
13744;DHT22;6943;52.368;9.966;2024-03-02T01:50:15;9.20;99.90
13744;DHT22;6943;52.368;9.966;2024-03-02T01:52:41;9.20;99.90
13744;DHT22;6943;52.368;9.966;2024-03-02T01:55:07;9.20;99.90
13744;DHT22;6943;52.368;9.966;2024-03-02T01:57:34;9.30;99.90
13744;DHT22;6943;52.368;9.966;2024-03-02T02:00:00;9.10;99.90
13744;DHT22;6943;52.368;9.966;2024-03-02T02:02:25;9.10;99.90
13744;DHT22;6943;52.368;9.966;2024-03-02T02:04:51;8.90;99.90
13744;DHT22;6943;52.368;9.966;2024-03-02T02:07:16;9.10;99.90
13744;DHT22;6943;52.368;9.966;2024-03-02T02:09:43;8.90;99.90
13744;DHT22;6943;52.368;9.966;2024-03-02T02:12:09;9.10;99.90
13744;DHT22;6943;52.368;9.966;2024-03-02T02:14:35;9.10;99.90
13744;DHT22;6943;52.368;9.966;2024-03-02T02:17:01;9.00;99.90
13744;DHT22;6943;52.368;9.966;2024-03-02T02:19:26;9.00;99.90
13744;DHT22;6943;52.368;9.966;2024-03-02T02:21:52;8.70;99.90
13744;DHT22;6943;52.368;9.966;2024-03-02T02:24:17;8.90;99.90
13744;DHT22;6943;52.368;9.966;2024-03-02T02:26:43;8.70;99.90
13744;DHT22;6943;52.368;9.966;2024-03-02T02:29:09;8.80;99.90
13744;DHT22;6943;52.368;9.966;2024-03-02T02:31:38;9.80;99.90
13744;DHT22;6943;52.368;9.966;2024-03-02T02:34:04;8.80;99.90
13744;DHT22;6943;52.368;9.966;2024-03-02T02:36:30;8.60;99.90
13744;DHT22;6943;52.368;9.966;2024-03-02T02:38:56;8.80;99.90
13744;DHT22;6943;52.368;9.966;2024-03-02T02:41:21;9.00;99.90
13744;DHT22;6943;52.368;9.966;2024-03-02T02:43:48;8.70;99.90
13744;DHT22;6943;52.368;9.966;2024-03-02T02:46:13;9.00;99.90
13744;DHT22;6943;52.368;9.966;2024-03-02T02:48:39;8.90;99.90
13744;DHT22;6943;52.368;9.966;2024-03-02T02:51:04;9.00;99.90
13744;DHT22;6943;52.368;9.966;2024-03-02T02:53:30;8.90;99.90
13744;DHT22;6943;52.368;9.966;2024-03-02T02:55:55;8.80;99.90
13744;DHT22;6943;52.368;9.966;2024-03-02T02:58:20;8.80;99.90
13744;DHT22;6943;52.368;9.966;2024-03-02T03:00:46;9.00;99.90
13744;DHT22;6943;52.368;9.966;2024-03-02T03:03:12;8.80;99.90
13744;DHT22;6943;52.368;9.966;2024-03-02T03:05:37;8.80;99.90
13744;DHT22;6943;52.368;9.966;2024-03-02T03:08:03;8.60;99.90
13744;DHT22;6943;52.368;9.966;2024-03-02T03:10:28;9.00;99.90
13744;DHT22;6943;52.368;9.966;2024-03-02T03:12:54;8.80;99.90
13744;DHT22;6943;52.368;9.966;2024-03-02T03:15:21;8.40;99.90
13744;DHT22;6943;52.368;9.966;2024-03-02T03:17:46;8.70;99.90
13744;DHT22;6943;52.368;9.966;2024-03-02T03:20:12;8.90;99.90
13744;DHT22;6943;52.368;9.966;2024-03-02T03:22:38;9.20;99.90
13744;DHT22;6943;52.368;9.966;2024-03-02T03:25:04;8.90;99.90
13744;DHT22;6943;52.368;9.966;2024-03-02T03:27:30;8.90;99.90
13744;DHT22;6943;52.368;9.966;2024-03-02T03:29:56;8.80;99.90
13744;DHT22;6943;52.368;9.966;2024-03-02T03:32:21;8.60;99.90
13744;DHT22;6943;52.368;9.966;2024-03-02T03:34:47;8.70;99.90
13744;DHT22;6943;52.368;9.966;2024-03-02T03:37:13;8.60;99.90
13744;DHT22;6943;52.368;9.966;2024-03-02T03:39:39;8.70;99.90
13744;DHT22;6943;52.368;9.966;2024-03-02T03:42:05;8.60;99.90
13744;DHT22;6943;52.368;9.966;2024-03-02T03:44:30;8.60;99.90
13744;DHT22;6943;52.368;9.966;2024-03-02T03:46:56;8.30;99.90
13744;DHT22;6943;52.368;9.966;2024-03-02T03:49:21;8.50;99.90
13744;DHT22;6943;52.368;9.966;2024-03-02T03:51:47;8.30;99.90
13744;DHT22;6943;52.368;9.966;2024-03-02T03:54:12;8.20;99.90
13744;DHT22;6943;52.368;9.966;2024-03-02T03:56:38;8.40;99.90
13744;DHT22;6943;52.368;9.966;2024-03-02T03:59:03;8.20;99.90
13744;DHT22;6943;52.368;9.966;2024-03-02T04:01:30;8.30;99.90
13744;DHT22;6943;52.368;9.966;2024-03-02T04:03:55;8.10;99.90
13744;DHT22;6943;52.368;9.966;2024-03-02T04:06:21;8.20;99.90
13744;DHT22;6943;52.368;9.966;2024-03-02T04:08:46;8.10;99.90
13744;DHT22;6943;52.368;9.966;2024-03-02T04:11:11;8.50;99.90
13744;DHT22;6943;52.368;9.966;2024-03-02T04:13:37;8.10;99.90
13744;DHT22;6943;52.368;9.966;2024-03-02T04:16:03;8.10;99.90
13744;DHT22;6943;52.368;9.966;2024-03-02T04:18:30;8.20;99.90
13744;DHT22;6943;52.368;9.966;2024-03-02T04:20:56;7.90;99.90
13744;DHT22;6943;52.368;9.966;2024-03-02T04:23:21;7.90;99.90
13744;DHT22;6943;52.368;9.966;2024-03-02T04:25:47;8.00;99.90
13744;DHT22;6943;52.368;9.966;2024-03-02T04:28:12;7.80;99.90
13744;DHT22;6943;52.368;9.966;2024-03-02T04:30:38;8.00;99.90
13744;DHT22;6943;52.368;9.966;2024-03-02T04:33:03;8.00;99.90
13744;DHT22;6943;52.368;9.966;2024-03-02T04:35:31;7.90;99.90
13744;DHT22;6943;52.368;9.966;2024-03-02T04:37:56;7.70;99.90
13744;DHT22;6943;52.368;9.966;2024-03-02T04:40:21;7.70;99.90
13744;DHT22;6943;52.368;9.966;2024-03-02T04:42:47;6.80;99.90
13744;DHT22;6943;52.368;9.966;2024-03-02T04:45:12;7.40;99.90
13744;DHT22;6943;52.368;9.966;2024-03-02T04:47:38;7.40;99.90
13744;DHT22;6943;52.368;9.966;2024-03-02T04:50:04;7.50;99.90
13744;DHT22;6943;52.368;9.966;2024-03-02T04:52:30;7.40;99.90
13744;DHT22;6943;52.368;9.966;2024-03-02T04:54:55;7.30;99.90
13744;DHT22;6943;52.368;9.966;2024-03-02T04:57:40;7.20;99.90
13744;DHT22;6943;52.368;9.966;2024-03-02T05:00:06;7.00;99.90
13744;DHT22;6943;52.368;9.966;2024-03-02T05:02:34;7.20;99.90
13744;DHT22;6943;52.368;9.966;2024-03-02T05:04:59;7.20;99.90
13744;DHT22;6943;52.368;9.966;2024-03-02T05:07:25;7.30;99.90
13744;DHT22;6943;52.368;9.966;2024-03-02T05:09:50;7.40;99.90
13744;DHT22;6943;52.368;9.966;2024-03-02T05:12:16;6.90;99.90
13744;DHT22;6943;52.368;9.966;2024-03-02T05:15:00;7.20;99.90
13744;DHT22;6943;52.368;9.966;2024-03-02T05:17:26;7.00;99.90
13744;DHT22;6943;52.368;9.966;2024-03-02T05:19:51;6.90;99.90
13744;DHT22;6943;52.368;9.966;2024-03-02T05:22:17;7.00;99.90
13744;DHT22;6943;52.368;9.966;2024-03-02T05:24:42;7.10;99.90
13744;DHT22;6943;52.368;9.966;2024-03-02T05:27:08;7.00;99.90
13744;DHT22;6943;52.368;9.966;2024-03-02T05:29:33;6.90;99.90
13744;DHT22;6943;52.368;9.966;2024-03-02T05:31:59;6.40;99.90
13744;DHT22;6943;52.368;9.966;2024-03-02T05:34:24;6.80;99.90
13744;DHT22;6943;52.368;9.966;2024-03-02T05:36:49;6.80;99.90
13744;DHT22;6943;52.368;9.966;2024-03-02T05:39:15;6.60;99.90
13744;DHT22;6943;52.368;9.966;2024-03-02T05:41:41;6.70;99.90
13744;DHT22;6943;52.368;9.966;2024-03-02T05:44:06;6.40;99.90
13744;DHT22;6943;52.368;9.966;2024-03-02T05:46:32;6.60;99.90
13744;DHT22;6943;52.368;9.966;2024-03-02T05:49:01;6.60;99.90
13744;DHT22;6943;52.368;9.966;2024-03-02T05:51:27;6.40;99.90
13744;DHT22;6943;52.368;9.966;2024-03-02T05:53:52;6.10;99.90
13744;DHT22;6943;52.368;9.966;2024-03-02T05:56:18;6.40;99.90
13744;DHT22;6943;52.368;9.966;2024-03-02T05:58:43;6.30;99.90
13744;DHT22;6943;52.368;9.966;2024-03-02T06:01:23;6.80;99.90
13744;DHT22;6943;52.368;9.966;2024-03-02T06:03:54;6.60;99.90
13744;DHT22;6943;52.368;9.966;2024-03-02T06:06:20;7.10;99.90
13744;DHT22;6943;52.368;9.966;2024-03-02T06:08:46;6.50;99.90
13744;DHT22;6943;52.368;9.966;2024-03-02T06:11:11;6.70;99.90
13744;DHT22;6943;52.368;9.966;2024-03-02T06:13:37;6.80;99.90
13744;DHT22;6943;52.368;9.966;2024-03-02T06:16:02;6.70;99.90
13744;DHT22;6943;52.368;9.966;2024-03-02T06:18:28;6.80;99.90
13744;DHT22;6943;52.368;9.966;2024-03-02T06:20:54;6.80;99.90
13744;DHT22;6943;52.368;9.966;2024-03-02T06:23:19;7.00;99.90
13744;DHT22;6943;52.368;9.966;2024-03-02T06:25:45;7.10;99.90
13744;DHT22;6943;52.368;9.966;2024-03-02T06:28:10;7.10;99.90
13744;DHT22;6943;52.368;9.966;2024-03-02T06:30:36;7.10;99.90
13744;DHT22;6943;52.368;9.966;2024-03-02T06:33:01;7.40;99.90
13744;DHT22;6943;52.368;9.966;2024-03-02T06:35:29;7.20;99.90
13744;DHT22;6943;52.368;9.966;2024-03-02T06:37:54;7.40;99.90
13744;DHT22;6943;52.368;9.966;2024-03-02T06:40:20;7.10;99.90
13744;DHT22;6943;52.368;9.966;2024-03-02T06:42:46;7.80;99.90
13744;DHT22;6943;52.368;9.966;2024-03-02T06:45:11;7.50;99.90
13744;DHT22;6943;52.368;9.966;2024-03-02T06:47:37;7.60;99.90
13744;DHT22;6943;52.368;9.966;2024-03-02T06:50:02;7.70;99.90
13744;DHT22;6943;52.368;9.966;2024-03-02T06:52:28;7.70;99.90
13744;DHT22;6943;52.368;9.966;2024-03-02T06:54:53;7.80;99.90
13744;DHT22;6943;52.368;9.966;2024-03-02T06:57:19;8.00;99.90
13744;DHT22;6943;52.368;9.966;2024-03-02T06:59:46;7.80;99.90
13744;DHT22;6943;52.368;9.966;2024-03-02T07:02:12;8.00;99.90
13744;DHT22;6943;52.368;9.966;2024-03-02T07:04:37;8.10;99.90
13744;DHT22;6943;52.368;9.966;2024-03-02T07:07:03;8.20;99.90
13744;DHT22;6943;52.368;9.966;2024-03-02T07:09:29;8.30;99.90
13744;DHT22;6943;52.368;9.966;2024-03-02T07:11:54;8.50;99.90
13744;DHT22;6943;52.368;9.966;2024-03-02T07:14:19;8.50;99.90
13744;DHT22;6943;52.368;9.966;2024-03-02T07:16:45;8.50;99.90
13744;DHT22;6943;52.368;9.966;2024-03-02T07:19:10;8.60;99.90
13744;DHT22;6943;52.368;9.966;2024-03-02T07:21:36;8.70;99.90
13744;DHT22;6943;52.368;9.966;2024-03-02T07:24:01;8.60;99.90
13744;DHT22;6943;52.368;9.966;2024-03-02T07:26:28;8.90;99.90
13744;DHT22;6943;52.368;9.966;2024-03-02T07:28:55;8.90;99.90
13744;DHT22;6943;52.368;9.966;2024-03-02T07:31:20;8.90;99.90
13744;DHT22;6943;52.368;9.966;2024-03-02T07:33:46;9.00;99.90
13744;DHT22;6943;52.368;9.966;2024-03-02T07:36:12;9.20;99.90
13744;DHT22;6943;52.368;9.966;2024-03-02T07:38:38;9.10;99.90
13744;DHT22;6943;52.368;9.966;2024-03-02T07:41:03;9.40;99.90
13744;DHT22;6943;52.368;9.966;2024-03-02T07:43:30;9.40;99.90
13744;DHT22;6943;52.368;9.966;2024-03-02T07:45:57;10.00;99.90
13744;DHT22;6943;52.368;9.966;2024-03-02T07:48:22;10.10;99.90
13744;DHT22;6943;52.368;9.966;2024-03-02T07:50:48;10.80;99.90
13744;DHT22;6943;52.368;9.966;2024-03-02T07:53:13;12.00;99.90
13744;DHT22;6943;52.368;9.966;2024-03-02T07:55:40;13.90;99.90
13744;DHT22;6943;52.368;9.966;2024-03-02T07:58:06;14.70;99.90
13744;DHT22;6943;52.368;9.966;2024-03-02T08:00:32;16.30;99.90
13744;DHT22;6943;52.368;9.966;2024-03-02T08:02:57;16.90;99.90
13744;DHT22;6943;52.368;9.966;2024-03-02T08:05:23;17.50;99.90
13744;DHT22;6943;52.368;9.966;2024-03-02T08:07:48;17.90;99.90
13744;DHT22;6943;52.368;9.966;2024-03-02T08:10:18;18.00;99.90
13744;DHT22;6943;52.368;9.966;2024-03-02T08:12:43;18.00;99.90
13744;DHT22;6943;52.368;9.966;2024-03-02T08:15:09;18.50;99.90
13744;DHT22;6943;52.368;9.966;2024-03-02T08:17:34;18.40;99.90
13744;DHT22;6943;52.368;9.966;2024-03-02T08:20:00;19.00;99.90
13744;DHT22;6943;52.368;9.966;2024-03-02T08:22:26;19.70;99.90
13744;DHT22;6943;52.368;9.966;2024-03-02T08:24:52;19.80;99.90
13744;DHT22;6943;52.368;9.966;2024-03-02T08:27:17;18.80;99.90
13744;DHT22;6943;52.368;9.966;2024-03-02T08:29:43;18.60;99.90
13744;DHT22;6943;52.368;9.966;2024-03-02T08:32:08;19.00;99.90
13744;DHT22;6943;52.368;9.966;2024-03-02T08:34:34;18.40;99.90
13744;DHT22;6943;52.368;9.966;2024-03-02T08:37:01;17.70;99.90
13744;DHT22;6943;52.368;9.966;2024-03-02T08:39:27;17.20;99.90
13744;DHT22;6943;52.368;9.966;2024-03-02T08:41:52;16.90;99.90
13744;DHT22;6943;52.368;9.966;2024-03-02T08:44:18;16.10;99.90
13744;DHT22;6943;52.368;9.966;2024-03-02T08:46:44;16.90;99.90
13744;DHT22;6943;52.368;9.966;2024-03-02T08:49:10;17.20;99.90
13744;DHT22;6943;52.368;9.966;2024-03-02T08:51:35;17.70;99.90
13744;DHT22;6943;52.368;9.966;2024-03-02T08:54:01;17.50;99.90
13744;DHT22;6943;52.368;9.966;2024-03-02T08:56:27;17.90;99.90
13744;DHT22;6943;52.368;9.966;2024-03-02T08:58:52;16.90;99.90
13744;DHT22;6943;52.368;9.966;2024-03-02T09:01:18;17.40;99.90
13744;DHT22;6943;52.368;9.966;2024-03-02T09:06:14;18.20;99.90
13744;DHT22;6943;52.368;9.966;2024-03-02T09:08:42;18.30;99.90
13744;DHT22;6943;52.368;9.966;2024-03-02T09:11:08;17.90;99.90
13744;DHT22;6943;52.368;9.966;2024-03-02T09:13:35;17.90;99.90
13744;DHT22;6943;52.368;9.966;2024-03-02T09:16:00;18.50;99.90
13744;DHT22;6943;52.368;9.966;2024-03-02T09:18:26;18.60;99.90
13744;DHT22;6943;52.368;9.966;2024-03-02T09:20:51;18.10;99.90
13744;DHT22;6943;52.368;9.966;2024-03-02T09:23:19;17.90;99.90
13744;DHT22;6943;52.368;9.966;2024-03-02T09:25:45;17.90;99.90
13744;DHT22;6943;52.368;9.966;2024-03-02T09:28:10;18.10;99.90
13744;DHT22;6943;52.368;9.966;2024-03-02T09:30:36;17.40;99.90
13744;DHT22;6943;52.368;9.966;2024-03-02T09:33:01;17.10;99.90
13744;DHT22;6943;52.368;9.966;2024-03-02T09:35:27;16.50;99.90
13744;DHT22;6943;52.368;9.966;2024-03-02T09:37:52;16.90;99.90
13744;DHT22;6943;52.368;9.966;2024-03-02T09:40:21;17.10;99.90
13744;DHT22;6943;52.368;9.966;2024-03-02T09:42:47;17.00;99.90
13744;DHT22;6943;52.368;9.966;2024-03-02T09:45:21;16.80;99.90
13744;DHT22;6943;52.368;9.966;2024-03-02T09:47:47;16.60;99.90
13744;DHT22;6943;52.368;9.966;2024-03-02T09:52:40;15.60;99.90
13744;DHT22;6943;52.368;9.966;2024-03-02T09:55:08;17.10;99.90
13744;DHT22;6943;52.368;9.966;2024-03-02T09:57:36;15.90;99.90
13744;DHT22;6943;52.368;9.966;2024-03-02T10:00:04;16.10;99.90
13744;DHT22;6943;52.368;9.966;2024-03-02T10:02:30;16.10;99.90
13744;DHT22;6943;52.368;9.966;2024-03-02T10:04:55;16.10;99.90
13744;DHT22;6943;52.368;9.966;2024-03-02T10:07:21;16.40;99.90
13744;DHT22;6943;52.368;9.966;2024-03-02T10:09:50;15.00;99.90
13744;DHT22;6943;52.368;9.966;2024-03-02T10:12:20;14.50;99.90
13744;DHT22;6943;52.368;9.966;2024-03-02T10:17:19;14.40;99.90
13744;DHT22;6943;52.368;9.966;2024-03-02T10:19:45;14.30;99.90
13744;DHT22;6943;52.368;9.966;2024-03-02T10:22:10;14.20;99.90
13744;DHT22;6943;52.368;9.966;2024-03-02T10:24:38;14.00;99.90
13744;DHT22;6943;52.368;9.966;2024-03-02T10:27:14;14.40;99.90
13744;DHT22;6943;52.368;9.966;2024-03-02T10:29:41;13.70;99.90
13744;DHT22;6943;52.368;9.966;2024-03-02T10:34:46;13.90;99.90
13744;DHT22;6943;52.368;9.966;2024-03-02T10:37:12;13.50;99.90
13744;DHT22;6943;52.368;9.966;2024-03-02T10:39:38;13.40;99.90
13744;DHT22;6943;52.368;9.966;2024-03-02T10:42:08;13.90;99.90
13744;DHT22;6943;52.368;9.966;2024-03-02T10:44:34;13.90;99.90
13744;DHT22;6943;52.368;9.966;2024-03-02T10:47:01;13.80;99.90
13744;DHT22;6943;52.368;9.966;2024-03-02T10:49:29;14.10;99.90
13744;DHT22;6943;52.368;9.966;2024-03-02T10:51:55;13.70;99.90
13744;DHT22;6943;52.368;9.966;2024-03-02T10:54:20;13.30;99.90
13744;DHT22;6943;52.368;9.966;2024-03-02T10:56:53;13.70;99.90
13744;DHT22;6943;52.368;9.966;2024-03-02T11:01:57;14.20;99.90
13744;DHT22;6943;52.368;9.966;2024-03-02T11:04:25;14.00;99.90
13744;DHT22;6943;52.368;9.966;2024-03-02T11:06:52;13.70;99.90
13744;DHT22;6943;52.368;9.966;2024-03-02T11:09:21;14.20;99.90
13744;DHT22;6943;52.368;9.966;2024-03-02T11:11:56;14.30;99.90
13744;DHT22;6943;52.368;9.966;2024-03-02T11:14:25;14.20;99.90
13744;DHT22;6943;52.368;9.966;2024-03-02T11:16:51;14.20;99.90
13744;DHT22;6943;52.368;9.966;2024-03-02T11:19:18;14.60;99.90
13744;DHT22;6943;52.368;9.966;2024-03-02T11:21:44;14.40;99.90
13744;DHT22;6943;52.368;9.966;2024-03-02T11:26:52;14.10;99.90
13744;DHT22;6943;52.368;9.966;2024-03-02T11:32:22;13.80;99.90
13744;DHT22;6943;52.368;9.966;2024-03-02T11:34:51;14.30;99.90
13744;DHT22;6943;52.368;9.966;2024-03-02T11:37:18;14.10;99.90
13744;DHT22;6943;52.368;9.966;2024-03-02T11:39:45;14.80;99.90
13744;DHT22;6943;52.368;9.966;2024-03-02T11:42:12;14.60;99.90
13744;DHT22;6943;52.368;9.966;2024-03-02T11:44:40;14.70;99.90
13744;DHT22;6943;52.368;9.966;2024-03-02T11:47:08;14.30;99.90
13744;DHT22;6943;52.368;9.966;2024-03-02T11:49:44;14.10;99.90
13744;DHT22;6943;52.368;9.966;2024-03-02T11:52:12;14.00;99.90
13744;DHT22;6943;52.368;9.966;2024-03-02T11:54:39;14.70;99.90
13744;DHT22;6943;52.368;9.966;2024-03-02T11:57:08;13.70;99.90
13744;DHT22;6943;52.368;9.966;2024-03-02T11:59:34;14.00;99.90
13744;DHT22;6943;52.368;9.966;2024-03-02T12:02:00;14.10;99.90
13744;DHT22;6943;52.368;9.966;2024-03-02T12:04:26;14.90;99.90
13744;DHT22;6943;52.368;9.966;2024-03-02T12:06:59;14.10;99.90
13744;DHT22;6943;52.368;9.966;2024-03-02T12:09:28;14.30;99.90
13744;DHT22;6943;52.368;9.966;2024-03-02T12:12:08;14.10;99.90
13744;DHT22;6943;52.368;9.966;2024-03-02T12:14:38;13.80;99.90
13744;DHT22;6943;52.368;9.966;2024-03-02T12:17:04;13.80;99.90
13744;DHT22;6943;52.368;9.966;2024-03-02T12:19:32;13.90;99.90
13744;DHT22;6943;52.368;9.966;2024-03-02T12:21:59;13.50;99.90
13744;DHT22;6943;52.368;9.966;2024-03-02T12:24:27;13.40;99.90
13744;DHT22;6943;52.368;9.966;2024-03-02T12:26:53;13.20;99.90
13744;DHT22;6943;52.368;9.966;2024-03-02T12:29:21;13.50;99.90
13744;DHT22;6943;52.368;9.966;2024-03-02T12:31:48;14.00;99.90
13744;DHT22;6943;52.368;9.966;2024-03-02T12:34:15;14.30;99.90
13744;DHT22;6943;52.368;9.966;2024-03-02T12:36:41;14.30;99.90
13744;DHT22;6943;52.368;9.966;2024-03-02T12:39:10;13.60;99.90
13744;DHT22;6943;52.368;9.966;2024-03-02T12:41:36;14.20;99.90
13744;DHT22;6943;52.368;9.966;2024-03-02T12:44:03;14.30;99.90
13744;DHT22;6943;52.368;9.966;2024-03-02T12:46:29;15.00;99.90
13744;DHT22;6943;52.368;9.966;2024-03-02T12:48:54;14.90;99.90
13744;DHT22;6943;52.368;9.966;2024-03-02T12:51:20;15.10;99.90
13744;DHT22;6943;52.368;9.966;2024-03-02T12:53:45;15.50;99.90
13744;DHT22;6943;52.368;9.966;2024-03-02T12:56:11;14.90;99.90
13744;DHT22;6943;52.368;9.966;2024-03-02T12:58:40;15.10;99.90
13744;DHT22;6943;52.368;9.966;2024-03-02T13:01:09;15.00;99.90
13744;DHT22;6943;52.368;9.966;2024-03-02T13:03:36;14.80;99.90
13744;DHT22;6943;52.368;9.966;2024-03-02T13:06:03;14.80;99.90
13744;DHT22;6943;52.368;9.966;2024-03-02T13:08:28;14.70;99.90
13744;DHT22;6943;52.368;9.966;2024-03-02T13:10:54;14.80;99.90
13744;DHT22;6943;52.368;9.966;2024-03-02T13:13:20;15.10;99.90
13744;DHT22;6943;52.368;9.966;2024-03-02T13:15:45;15.00;99.90
13744;DHT22;6943;52.368;9.966;2024-03-02T13:18:11;14.60;99.90
13744;DHT22;6943;52.368;9.966;2024-03-02T13:20:37;14.30;99.90
13744;DHT22;6943;52.368;9.966;2024-03-02T13:23:04;14.50;99.90
13744;DHT22;6943;52.368;9.966;2024-03-02T13:25:29;14.60;99.90
13744;DHT22;6943;52.368;9.966;2024-03-02T13:27:57;14.50;99.90
13744;DHT22;6943;52.368;9.966;2024-03-02T13:30:22;14.40;99.90
13744;DHT22;6943;52.368;9.966;2024-03-02T13:32:47;14.40;99.90
13744;DHT22;6943;52.368;9.966;2024-03-02T13:35:13;14.80;99.90
13744;DHT22;6943;52.368;9.966;2024-03-02T13:37:38;14.10;99.90
13744;DHT22;6943;52.368;9.966;2024-03-02T13:40:04;14.70;99.90
13744;DHT22;6943;52.368;9.966;2024-03-02T13:42:30;14.50;99.90
13744;DHT22;6943;52.368;9.966;2024-03-02T13:44:56;14.90;99.90
13744;DHT22;6943;52.368;9.966;2024-03-02T13:47:22;14.50;99.90
13744;DHT22;6943;52.368;9.966;2024-03-02T13:49:47;14.40;99.90
13744;DHT22;6943;52.368;9.966;2024-03-02T13:52:14;14.70;99.90
13744;DHT22;6943;52.368;9.966;2024-03-02T13:54:41;14.50;99.90
13744;DHT22;6943;52.368;9.966;2024-03-02T13:57:07;14.30;99.90
13744;DHT22;6943;52.368;9.966;2024-03-02T13:59:34;15.00;99.90
13744;DHT22;6943;52.368;9.966;2024-03-02T14:02:03;15.10;99.90
13744;DHT22;6943;52.368;9.966;2024-03-02T14:04:33;14.70;99.90
13744;DHT22;6943;52.368;9.966;2024-03-02T14:06:59;14.70;99.90
13744;DHT22;6943;52.368;9.966;2024-03-02T14:09:25;14.80;99.90
13744;DHT22;6943;52.368;9.966;2024-03-02T14:11:51;14.70;99.90
13744;DHT22;6943;52.368;9.966;2024-03-02T14:14:17;14.60;99.90
13744;DHT22;6943;52.368;9.966;2024-03-02T14:16:43;14.40;99.90
13744;DHT22;6943;52.368;9.966;2024-03-02T14:19:09;14.50;99.90
13744;DHT22;6943;52.368;9.966;2024-03-02T14:21:35;14.30;99.90
13744;DHT22;6943;52.368;9.966;2024-03-02T14:24:01;14.10;99.90
13744;DHT22;6943;52.368;9.966;2024-03-02T14:26:27;14.40;99.90
13744;DHT22;6943;52.368;9.966;2024-03-02T14:28:53;14.90;99.90
13744;DHT22;6943;52.368;9.966;2024-03-02T14:31:19;14.30;99.90
13744;DHT22;6943;52.368;9.966;2024-03-02T14:33:45;14.40;99.90
13744;DHT22;6943;52.368;9.966;2024-03-02T14:36:11;14.30;99.90
13744;DHT22;6943;52.368;9.966;2024-03-02T14:38:37;14.30;99.90
13744;DHT22;6943;52.368;9.966;2024-03-02T14:41:03;14.30;99.90
13744;DHT22;6943;52.368;9.966;2024-03-02T14:43:29;14.40;99.90
13744;DHT22;6943;52.368;9.966;2024-03-02T14:45:55;14.20;99.90
13744;DHT22;6943;52.368;9.966;2024-03-02T14:48:21;14.00;99.90
13744;DHT22;6943;52.368;9.966;2024-03-02T14:50:46;14.00;99.90
13744;DHT22;6943;52.368;9.966;2024-03-02T14:53:12;14.40;99.90
13744;DHT22;6943;52.368;9.966;2024-03-02T14:55:37;14.40;99.90
13744;DHT22;6943;52.368;9.966;2024-03-02T14:58:03;13.90;99.90
13744;DHT22;6943;52.368;9.966;2024-03-02T15:00:28;14.60;99.90
13744;DHT22;6943;52.368;9.966;2024-03-02T15:02:54;14.00;99.90
13744;DHT22;6943;52.368;9.966;2024-03-02T15:05:19;13.70;99.90
13744;DHT22;6943;52.368;9.966;2024-03-02T15:07:45;13.80;99.90
13744;DHT22;6943;52.368;9.966;2024-03-02T15:10:10;14.10;99.90
13744;DHT22;6943;52.368;9.966;2024-03-02T15:12:37;13.80;99.90
13744;DHT22;6943;52.368;9.966;2024-03-02T15:15:03;13.60;99.90
13744;DHT22;6943;52.368;9.966;2024-03-02T15:17:29;13.70;99.90
13744;DHT22;6943;52.368;9.966;2024-03-02T15:19:54;13.50;99.90
13744;DHT22;6943;52.368;9.966;2024-03-02T15:22:20;13.90;99.90
13744;DHT22;6943;52.368;9.966;2024-03-02T15:24:45;13.40;99.90
13744;DHT22;6943;52.368;9.966;2024-03-02T15:27:11;13.20;99.90
13744;DHT22;6943;52.368;9.966;2024-03-02T15:29:36;13.50;99.90
13744;DHT22;6943;52.368;9.966;2024-03-02T15:32:03;13.40;99.90
13744;DHT22;6943;52.368;9.966;2024-03-02T15:34:31;13.40;99.90
13744;DHT22;6943;52.368;9.966;2024-03-02T15:36:57;13.60;99.90
13744;DHT22;6943;52.368;9.966;2024-03-02T15:39:22;13.10;99.90
13744;DHT22;6943;52.368;9.966;2024-03-02T15:41:48;13.30;99.90
13744;DHT22;6943;52.368;9.966;2024-03-02T15:44:13;13.10;99.90
13744;DHT22;6943;52.368;9.966;2024-03-02T15:46:39;13.20;99.90
13744;DHT22;6943;52.368;9.966;2024-03-02T15:49:04;13.30;99.90
13744;DHT22;6943;52.368;9.966;2024-03-02T15:51:33;13.30;99.90
13744;DHT22;6943;52.368;9.966;2024-03-02T15:54:01;13.10;99.90
13744;DHT22;6943;52.368;9.966;2024-03-02T15:56:27;13.20;99.90
13744;DHT22;6943;52.368;9.966;2024-03-02T15:58:53;13.00;99.90
13744;DHT22;6943;52.368;9.966;2024-03-02T16:01:18;13.00;99.90
13744;DHT22;6943;52.368;9.966;2024-03-02T16:03:45;13.00;99.90
13744;DHT22;6943;52.368;9.966;2024-03-02T16:06:11;13.10;99.90
13744;DHT22;6943;52.368;9.966;2024-03-02T16:08:36;13.10;99.90